Time;durP1;ratioP1;P1;durP2;ratioP2;P2;SDS_P1;SDS_P2;PMS_P1;PMS_P2;Temp;Humidity;BMP_temperature;BMP_pressure;BME280_temperature;BME280_humidity;BME280_pressure;Samples;Min_cycle;Max_cycle;Signal;HPM_P1;HPM_P2
2020/12/16 00:01:51;;;;;;;;;;;;;;;12.74;59.00;101232.53;5039377;28;96979;-85
2020/12/16 00:04:17;;;;;;;;;;;;;;;12.89;58.44;101233.75;5035745;28;101557;-85
2020/12/16 00:06:43;;;;;;;;;;;;;;;12.96;58.13;101229.94;5030497;28;98962;-85
2020/12/16 00:09:09;;;;;;;;;;;;;;;12.53;59.57;101235.97;5029188;28;96796;-85
2020/12/16 00:11:35;;;;;;;;;;;;;;;12.86;58.51;101234.75;5043219;28;96815;-85
2020/12/16 00:14:01;;;;;;;;;;;;;;;12.73;58.91;101246.72;5036806;27;99627;-85
2020/12/16 00:16:27;;;;;;;;;;;;;;;12.72;59.23;101245.88;5041845;28;98326;-86
2020/12/16 00:18:55;;;;;;;;;;;;;;;12.85;58.88;101253.38;5054220;28;96560;-87
2020/12/16 00:21:21;;;;;;;;;;;;;;;12.78;58.85;101261.56;5039252;28;97008;-87
2020/12/16 00:23:48;;;;;;;;;;;;;;;12.73;59.17;101265.28;5044198;28;101083;-86
2020/12/16 00:26:15;;;;;;;;;;;;;;;12.90;58.78;101260.22;5033666;28;100237;-86
2020/12/16 00:28:44;;;;;;;;;;;;;;;13.02;58.25;101266.84;5028981;28;97080;-84
2020/12/16 00:31:12;;;;;;;;;;;;;;;12.95;58.43;101268.00;5046041;28;96957;-85
2020/12/16 00:33:38;;;;;;;;;;;;;;;12.93;58.37;101273.38;5036940;28;99367;-85
2020/12/16 00:36:05;;;;;;;;;;;;;;;12.80;58.91;101265.94;5042829;28;98760;-85
2020/12/16 00:38:31;;;;;;;;;;;;;;;12.89;59.06;101270.88;5040419;28;96710;-85
2020/12/16 00:40:56;;;;;;;;;;;;;;;12.81;59.00;101281.78;5051538;28;96619;-85
2020/12/16 00:43:23;;;;;;;;;;;;;;;12.68;59.53;101288.44;5056364;28;97010;-84
2020/12/16 00:45:49;;;;;;;;;;;;;;;12.86;58.74;101290.44;5056225;28;97917;-85
2020/12/16 00:48:15;;;;;;;;;;;;;;;12.80;59.19;101288.00;5033141;28;96624;-86
2020/12/16 00:50:48;;;;;;;;;;;;;;;12.85;58.75;101294.03;5051909;28;96654;-86
2020/12/16 00:53:15;;;;;;;;;;;;;;;12.83;58.96;101302.94;5059470;27;101080;-85
2020/12/16 00:55:41;;;;;;;;;;;;;;;12.97;58.79;101304.19;5060409;27;99174;-84
2020/12/16 00:58:08;;;;;;;;;;;;;;;12.92;58.85;101311.44;5061352;27;97377;-85
2020/12/16 01:00:37;;;;;;;;;;;;;;;12.92;58.90;101311.44;5061859;27;96371;-85
2020/12/16 01:03:03;;;;;;;;;;;;;;;12.68;59.74;101320.25;5051572;28;98140;-87
2020/12/16 01:05:29;;;;;;;;;;;;;;;12.86;59.47;101321.41;5038335;28;101060;-86
2020/12/16 01:07:55;;;;;;;;;;;;;;;12.94;59.18;101325.50;5042210;28;97019;-87
2020/12/16 01:10:22;;;;;;;;;;;;;;;13.16;58.67;101325.63;5043097;28;96863;-87
2020/12/16 01:12:51;;;;;;;;;;;;;;;13.01;58.94;101329.66;5043513;28;99040;-87
2020/12/16 01:15:21;;;;;;;;;;;;;;;12.95;59.09;101323.72;5047509;28;101216;-86
2020/12/16 01:17:48;;;;;;;;;;;;;;;13.09;58.72;101337.34;5048363;28;96669;-86
2020/12/16 01:20:14;;;;;;;;;;;;;;;13.08;58.71;101341.78;5046053;28;96586;-86
2020/12/16 01:25:40;;;;;;;;;;;;;;;12.95;59.43;101345.81;5030758;28;96801;-84
2020/12/16 01:28:07;;;;;;;;;;;;;;;12.85;59.93;101349.72;5043231;27;96658;-85
2020/12/16 01:30:33;;;;;;;;;;;;;;;12.91;59.23;101352.16;5043311;28;96958;-86
2020/12/16 01:32:59;;;;;;;;;;;;;;;12.96;59.32;101358.16;5038673;28;98686;-85
2020/12/16 01:35:25;;;;;;;;;;;;;;;13.05;59.26;101351.66;5039509;28;99015;-86
2020/12/16 01:37:52;;;;;;;;;;;;;;;13.01;59.38;101348.22;5036717;28;96775;-86
2020/12/16 01:40:18;;;;;;;;;;;;;;;13.10;59.19;101355.88;5035445;27;96760;-86
2020/12/16 01:42:46;;;;;;;;;;;;;;;13.01;59.44;101350.03;5023263;28;100626;-86
2020/12/16 01:45:13;;;;;;;;;;;;;;;12.98;59.36;101361.63;5041939;27;101563;-86
2020/12/16 01:47:39;;;;;;;;;;;;;;;13.11;58.83;101357.59;5044209;27;96610;-87
2020/12/16 01:50:06;;;;;;;;;;;;;;;13.27;58.73;101357.94;5045656;28;96644;-85
2020/12/16 01:52:32;;;;;;;;;;;;;;;13.13;59.11;101369.03;5042882;28;100305;-86
2020/12/16 01:55:00;;;;;;;;;;;;;;;13.18;59.13;101365.38;5040188;28;98648;-85
2020/12/16 01:57:26;;;;;;;;;;;;;;;13.34;58.44;101364.75;5044063;28;97050;-85
2020/12/16 01:59:54;;;;;;;;;;;;;;;13.18;58.97;101360.06;5033361;28;96888;-86
2020/12/16 02:02:20;;;;;;;;;;;;;;;13.03;59.54;101358.78;5041956;28;100189;-86
2020/12/16 02:04:48;;;;;;;;;;;;;;;13.24;58.90;101370.47;5044123;28;99775;-86
2020/12/16 02:07:14;;;;;;;;;;;;;;;13.14;59.54;101367.25;5025612;28;96984;-86
2020/12/16 02:09:42;;;;;;;;;;;;;;;13.12;59.39;101370.00;5021764;28;96768;-86
2020/12/16 02:12:08;;;;;;;;;;;;;;;13.22;59.12;101375.81;5035391;28;98066;-86
2020/12/16 02:14:34;;;;;;;;;;;;;;;13.06;59.43;101377.28;5044518;28;98229;-86
2020/12/16 02:17:05;;;;;;;;;;;;;;;13.22;59.24;101373.16;5039991;28;96795;-86
2020/12/16 02:19:33;;;;;;;;;;;;;;;13.18;59.44;101376.84;5050419;28;96755;-87
2020/12/16 02:21:59;;;;;;;;;;;;;;;13.18;59.49;101384.81;5046281;27;100207;-87
2020/12/16 02:24:28;;;;;;;;;;;;;;;13.10;59.74;101389.50;5053680;28;100960;-86
2020/12/16 02:26:55;;;;;;;;;;;;;;;12.98;60.08;101393.47;5052475;28;96092;-87
2020/12/16 02:29:20;;;;;;;;;;;;;;;13.31;59.32;101387.91;5045028;28;96532;-86
2020/12/16 02:31:49;;;;;;;;;;;;;;;13.31;59.23;101390.56;5044940;28;100541;-87
2020/12/16 02:34:15;;;;;;;;;;;;;;;13.20;59.61;101395.34;5047136;28;99188;-86
2020/12/16 02:36:41;;;;;;;;;;;;;;;13.20;59.70;101403.31;5050671;27;96659;-85
2020/12/16 02:39:07;;;;;;;;;;;;;;;13.35;59.21;101395.69;5053262;28;96909;-87
2020/12/16 02:41:33;;;;;;;;;;;;;;;13.05;60.04;101405.59;5040028;28;101105;-86
2020/12/16 02:44:03;;;;;;;;;;;;;;;13.11;60.27;101405.38;5040579;28;100434;-84
2020/12/16 02:46:29;;;;;;;;;;;;;;;13.23;60.18;101403.22;5033372;28;97043;-85
2020/12/16 02:48:55;;;;;;;;;;;;;;;13.41;59.53;101415.81;5021797;28;96899;-86
2020/12/16 02:51:21;;;;;;;;;;;;;;;13.43;59.49;101411.31;5030018;28;99033;-85
2020/12/16 02:53:47;;;;;;;;;;;;;;;13.38;59.60;101410.63;5025236;28;98725;-86
2020/12/16 02:56:13;;;;;;;;;;;;;;;13.47;59.38;101418.25;5033306;28;96892;-87
2020/12/16 02:58:43;;;;;;;;;;;;;;;13.32;60.15;101418.81;5042194;28;97229;-87
2020/12/16 03:01:10;;;;;;;;;;;;;;;13.13;60.51;101419.47;5026886;28;99351;-86
2020/12/16 03:03:37;;;;;;;;;;;;;;;13.22;60.25;101420.06;5028024;28;97870;-85
2020/12/16 03:06:03;;;;;;;;;;;;;;;13.39;59.70;101421.19;5043104;28;96604;-85
2020/12/16 03:08:29;;;;;;;;;;;;;;;13.38;60.05;101423.91;5040885;28;96832;-84
2020/12/16 03:10:55;;;;;;;;;;;;;;;13.50;59.70;101421.69;5026886;27;99418;-86
2020/12/16 03:13:21;;;;;;;;;;;;;;;13.46;60.05;101429.78;5044298;28;98057;-85
2020/12/16 03:15:50;;;;;;;;;;;;;;;13.33;60.34;101431.16;5048444;28;96393;-85
2020/12/16 03:18:17;;;;;;;;;;;;;;;13.37;60.32;101438.97;5052444;28;96512;-86
2020/12/16 03:20:43;;;;;;;;;;;;;;;13.49;60.47;101438.53;5053168;28;98277;-84
2020/12/16 03:23:09;;;;;;;;;;;;;;;13.52;59.84;101437.56;5038474;28;98645;-86
2020/12/16 03:25:36;;;;;;;;;;;;;;;13.26;61.58;101450.91;5045878;28;96541;-85
2020/12/16 03:28:01;;;;;;;;;;;;;;;13.33;61.09;101442.63;5023541;28;96699;-85
2020/12/16 03:30:27;;;;;;;;;;;;;;;13.40;60.70;101438.84;5034959;28;98174;-86
2020/12/16 03:32:54;;;;;;;;;;;;;;;13.48;60.76;101451.84;5048617;28;97727;-86
2020/12/16 03:35:21;;;;;;;;;;;;;;;13.30;61.58;101442.75;5048119;27;96067;-84
2020/12/16 03:37:47;;;;;;;;;;;;;;;13.45;61.18;101451.97;5058746;27;96177;-86
2020/12/16 03:40:13;;;;;;;;;;;;;;;13.38;61.30;101456.63;5046096;27;97339;-85
2020/12/16 03:42:41;;;;;;;;;;;;;;;13.49;60.87;101454.44;5044008;27;99527;-85
2020/12/16 03:45:07;;;;;;;;;;;;;;;13.43;61.30;101453.81;5056444;27;95953;-86
2020/12/16 03:47:33;;;;;;;;;;;;;;;13.56;60.61;101460.41;5053315;27;96009;-85
2020/12/16 03:49:59;;;;;;;;;;;;;;;13.74;60.05;101457.06;5056878;27;97020;-86
2020/12/16 03:52:26;;;;;;;;;;;;;;;13.55;60.68;101463.97;5040338;27;100048;-86
2020/12/16 03:54:52;;;;;;;;;;;;;;;13.64;60.69;101454.81;5032705;28;96608;-86
2020/12/16 03:57:18;;;;;;;;;;;;;;;13.48;61.01;101465.13;5032120;28;96800;-86
2020/12/16 03:59:44;;;;;;;;;;;;;;;13.40;61.39;101465.38;5019051;28;101563;-84
2020/12/16 04:02:10;;;;;;;;;;;;;;;13.61;60.78;101469.06;5018806;28;101119;-85
2020/12/16 04:04:36;;;;;;;;;;;;;;;13.56;61.06;101471.03;5026496;28;96752;-86
2020/12/16 04:07:02;;;;;;;;;;;;;;;13.43;61.60;101480.34;5030747;27;97699;-86
2020/12/16 04:09:29;;;;;;;;;;;;;;;13.71;60.63;101474.91;5041271;28;96922;-85
2020/12/16 04:11:55;;;;;;;;;;;;;;;13.71;60.93;101480.22;5040415;28;100742;-86
2020/12/16 04:14:21;;;;;;;;;;;;;;;13.45;61.44;101470.56;5040735;28;96963;-86
2020/12/16 04:16:47;;;;;;;;;;;;;;;13.59;60.75;101476.22;5039713;28;96730;-85
2020/12/16 04:19:13;;;;;;;;;;;;;;;13.35;61.92;101480.63;5029078;28;98236;-86
2020/12/16 04:21:39;;;;;;;;;;;;;;;13.32;61.94;101478.09;5042583;28;98216;-86
2020/12/16 04:24:05;;;;;;;;;;;;;;;13.54;61.29;101484.34;5041269;28;96717;-86
2020/12/16 04:26:33;;;;;;;;;;;;;;;13.51;61.40;101486.25;5040945;28;96786;-85
2020/12/16 04:28:59;;;;;;;;;;;;;;;13.56;60.97;101482.53;5039706;28;98502;-86
2020/12/16 04:31:25;;;;;;;;;;;;;;;13.57;61.24;101486.91;5037973;27;100189;-86
2020/12/16 04:33:51;;;;;;;;;;;;;;;13.75;60.63;101477.41;5040189;28;96737;-85
2020/12/16 04:36:17;;;;;;;;;;;;;;;13.68;60.83;101485.63;5041579;28;96701;-85
2020/12/16 04:38:42;;;;;;;;;;;;;;;13.70;60.62;101486.47;5039143;28;99479;-85
2020/12/16 04:41:09;;;;;;;;;;;;;;;13.67;60.87;101490.09;5033020;28;96937;-86
2020/12/16 04:43:40;;;;;;;;;;;;;;;13.53;61.17;101500.31;5036029;28;96789;-85
2020/12/16 04:46:06;;;;;;;;;;;;;;;13.59;61.15;101501.94;5043267;27;96734;-86
2020/12/16 04:48:32;;;;;;;;;;;;;;;13.60;60.84;101501.84;5043421;28;97453;-86
2020/12/16 04:51:00;;;;;;;;;;;;;;;13.80;60.44;101511.75;5044148;28;98233;-85
2020/12/16 04:53:27;;;;;;;;;;;;;;;13.60;60.95;101512.47;5034166;28;96853;-85
2020/12/16 04:55:54;;;;;;;;;;;;;;;13.67;60.93;101511.31;5033820;28;97403;-85
2020/12/16 04:58:19;;;;;;;;;;;;;;;13.72;60.56;101516.50;5034596;28;99844;-85
2020/12/16 05:00:46;;;;;;;;;;;;;;;13.72;60.72;101514.69;5042347;28;98548;-87
2020/12/16 05:03:12;;;;;;;;;;;;;;;13.54;61.52;101515.34;5033572;28;96829;-86
2020/12/16 05:05:38;;;;;;;;;;;;;;;13.76;nan;101511.00;5031180;28;96628;-87
2020/12/16 05:08:11;;;;;;;;;;;;;;;13.77;60.84;101512.75;5036148;28;100406;-86
2020/12/16 05:10:38;;;;;;;;;;;;;;;13.68;61.28;101525.47;5042214;28;97630;-86
2020/12/16 05:13:06;;;;;;;;;;;;;;;13.60;61.51;101527.53;5042589;27;96594;-85
2020/12/16 05:15:33;;;;;;;;;;;;;;;13.63;61.04;101541.59;5030996;28;96789;-85
2020/12/16 05:18:07;;;;;;;;;;;;;;;13.61;61.01;101540.75;5032520;28;97074;-85
2020/12/16 05:20:33;;;;;;;;;;;;;;;13.89;59.87;101544.16;5030170;28;100906;-85
2020/12/16 05:23:00;;;;;;;;;;;;;;;13.88;60.36;101542.44;5031668;28;96983;-85
2020/12/16 05:25:26;;;;;;;;;;;;;;;13.69;60.70;101551.13;5047682;28;97588;-84
2020/12/16 05:27:52;;;;;;;;;;;;;;;13.48;61.27;101555.38;5044290;28;98110;-85
2020/12/16 05:30:18;;;;;;;;;;;;;;;13.71;60.96;101558.13;5042134;28;99918;-81
2020/12/16 05:32:44;;;;;;;;;;;;;;;13.68;60.86;101555.56;5044534;28;96645;-84
2020/12/16 05:35:21;;;;;;;;;;;;;;;13.68;60.97;101562.66;5049273;28;96942;-85
2020/12/16 05:37:48;;;;;;;;;;;;;;;13.77;60.56;101559.69;5044978;28;97329;-84
2020/12/16 05:40:14;;;;;;;;;;;;;;;13.94;60.07;101565.25;5033985;28;96727;-85
2020/12/16 05:42:41;;;;;;;;;;;;;;;13.88;59.95;101565.47;5047993;28;96727;-86
2020/12/16 05:45:09;;;;;;;;;;;;;;;13.94;59.98;101568.78;5048656;27;96651;-85
2020/12/16 05:47:39;;;;;;;;;;;;;;;14.05;59.57;101567.50;5034529;28;98293;-85
2020/12/16 05:50:10;;;;;;;;;;;;;;;13.72;60.60;101582.91;5029710;28;98088;-88
2020/12/16 05:52:37;;;;;;;;;;;;;;;13.62;60.97;101584.13;5040865;28;96553;-88
2020/12/16 05:55:03;;;;;;;;;;;;;;;13.55;61.10;101586.13;5047438;28;96805;-87
2020/12/16 05:57:29;;;;;;;;;;;;;;;13.73;60.63;101585.47;5043798;28;98118;-88
2020/12/16 06:00:04;;;;;;;;;;;;;;;13.76;60.77;101585.38;5034256;28;97110;-88
2020/12/16 06:02:33;;;;;;;;;;;;;;;13.78;60.83;101588.84;5052047;28;96745;-87
2020/12/16 06:04:59;;;;;;;;;;;;;;;13.70;60.90;101590.91;5037588;28;96738;-87
2020/12/16 06:07:26;;;;;;;;;;;;;;;13.75;60.67;101588.94;5024802;28;99149;-87
2020/12/16 06:09:55;;;;;;;;;;;;;;;13.94;60.20;101594.47;5024776;28;99406;-87
2020/12/16 06:12:25;;;;;;;;;;;;;;;13.62;61.34;101594.75;5025192;28;96895;-87
2020/12/16 06:15:02;;;;;;;;;;;;;;;13.84;60.67;101591.28;5041676;28;96769;-88
2020/12/16 06:17:30;;;;;;;;;;;;;;;13.84;60.69;101599.25;5044728;28;98721;-88
2020/12/16 06:20:00;;;;;;;;;;;;;;;13.84;60.70;101601.06;5050411;27;100380;-85
2020/12/16 06:22:32;;;;;;;;;;;;;;;13.81;60.33;101604.66;5043595;28;96572;-85
2020/12/16 06:25:02;;;;;;;;;;;;;;;13.79;60.46;101606.50;5044288;28;98580;-86
2020/12/16 06:27:32;;;;;;;;;;;;;;;13.95;60.11;101605.06;5041644;28;98087;-86
2020/12/16 06:30:01;;;;;;;;;;;;;;;13.99;59.95;101603.13;5057627;27;99086;-86
2020/12/16 06:32:33;;;;;;;;;;;;;;;13.84;60.57;101612.56;5040864;28;96390;-85
2020/12/16 06:35:03;;;;;;;;;;;;;;;13.93;59.86;101612.19;5052474;27;95971;-84
2020/12/16 06:37:28;;;;;;;;;;;;;;;13.92;60.16;101613.13;5059901;27;98316;-84
2020/12/16 06:39:54;;;;;;;;;;;;;;;13.70;60.81;101622.78;5059786;27;96615;-85
2020/12/16 06:42:32;;;;;;;;;;;;;;;13.88;60.34;101621.25;5058923;28;96592;-85
2020/12/16 06:45:11;;;;;;;;;;;;;;;13.83;60.36;101618.78;5059582;28;95960;-86
2020/12/16 06:47:37;;;;;;;;;;;;;;;13.69;60.83;101625.47;5045872;28;96847;-86
2020/12/16 06:50:16;;;;;;;;;;;;;;;13.75;60.63;101628.78;5037469;28;99970;-85
2020/12/16 06:52:41;;;;;;;;;;;;;;;13.92;60.41;101622.88;5046346;28;96547;-86
2020/12/16 06:55:08;;;;;;;;;;;;;;;13.82;60.37;101629.44;5035340;28;96976;-87
2020/12/16 06:57:44;;;;;;;;;;;;;;;13.90;59.97;101633.59;5036479;28;100124;-87
2020/12/16 07:00:21;;;;;;;;;;;;;;;13.82;60.34;101640.94;5037288;28;101296;-87
2020/12/16 07:02:47;;;;;;;;;;;;;;;14.03;59.82;101642.00;5040366;28;96749;-87
2020/12/16 07:05:28;;;;;;;;;;;;;;;14.17;58.84;101644.16;5041008;28;96871;-86
2020/12/16 07:07:57;;;;;;;;;;;;;;;14.09;59.63;101651.53;5026587;27;102385;-86
2020/12/16 07:10:44;;;;;;;;;;;;;;;13.70;60.50;101654.66;5035491;28;98141;-86
2020/12/16 07:13:14;;;;;;;;;;;;;;;13.92;60.00;101662.72;5027819;28;96638;-85
2020/12/16 07:15:41;;;;;;;;;;;;;;;13.96;59.49;101667.91;5039873;28;96691;-85
2020/12/16 07:18:18;;;;;;;;;;;;;;;13.58;60.86;101665.69;5055185;28;99406;-86
2020/12/16 07:20:44;;;;;;;;;;;;;;;13.70;60.44;101665.28;5046743;27;99385;-87
2020/12/16 07:23:14;;;;;;;;;;;;;;;13.90;59.75;101673.44;5034193;28;97759;-86
2020/12/16 07:25:42;;;;;;;;;;;;;;;13.73;60.44;101680.22;5052113;28;96878;-84
2020/12/16 07:28:09;;;;;;;;;;;;;;;14.12;59.45;101678.84;5046905;27;99597;-85
2020/12/16 07:30:48;;;;;;;;;;;;;;;14.08;59.19;101676.38;5047535;28;98376;-87
2020/12/16 07:33:16;;;;;;;;;;;;;;;13.80;59.87;101674.66;5038910;28;97101;-83
2020/12/16 07:35:45;;;;;;;;;;;;;;;13.91;60.16;101680.47;5039062;27;97386;-83
2020/12/16 07:38:11;;;;;;;;;;;;;;;13.90;60.04;101675.22;5041185;28;96858;-82
2020/12/16 07:40:37;;;;;;;;;;;;;;;13.89;60.07;101677.00;5027096;28;98275;-83
2020/12/16 07:43:03;;;;;;;;;;;;;;;13.86;59.88;101670.91;5023917;28;96930;-82
2020/12/16 07:45:29;;;;;;;;;;;;;;;14.06;58.83;101672.88;5026005;28;96876;-85
2020/12/16 07:47:57;;;;;;;;;;;;;;;13.89;59.85;101666.38;5038013;27;100185;-88
2020/12/16 07:50:23;;;;;;;;;;;;;;;13.66;60.40;101668.06;5053889;27;96999;-89
2020/12/16 07:52:52;;;;;;;;;;;;;;;13.91;59.58;101672.50;5056902;28;97576;-89
2020/12/16 07:55:22;;;;;;;;;;;;;;;13.88;59.61;101680.59;5057157;28;97558;-85
2020/12/16 07:57:48;;;;;;;;;;;;;;;14.16;58.62;101675.19;5056509;28;100229;-89
2020/12/16 08:00:16;;;;;;;;;;;;;;;14.13;58.47;101674.41;5044906;27;98862;-90
2020/12/16 08:02:48;;;;;;;;;;;;;;;14.31;58.18;101671.94;5047252;27;97424;-91
2020/12/16 08:05:15;;;;;;;;;;;;;;;14.59;56.98;101668.31;5051863;28;97269;-89
2020/12/16 08:07:50;;;;;;;;;;;;;;;14.21;58.40;101675.00;5051457;27;99484;-91
2020/12/16 08:10:17;;;;;;;;;;;;;;;14.28;58.21;101679.19;5055203;27;98618;-88
2020/12/16 08:12:43;;;;;;;;;;;;;;;14.39;57.59;101677.03;5050561;27;96861;-88
2020/12/16 08:15:10;;;;;;;;;;;;;;;14.42;57.58;101676.94;5058156;27;97652;-90
2020/12/16 08:17:40;;;;;;;;;;;;;;;14.46;57.26;101678.53;5059174;27;98084;-87
2020/12/16 08:20:10;;;;;;;;;;;;;;;14.35;55.90;101684.22;5057287;27;99923;-91
2020/12/16 08:22:38;;;;;;;;;;;;;;;14.62;54.42;101684.16;5059698;27;96616;-89
2020/12/16 08:25:08;;;;;;;;;;;;;;;14.31;55.64;101687.03;5056086;27;96539;-92
2020/12/16 08:27:34;;;;;;;;;;;;;;;14.29;55.99;101683.59;5046420;27;97006;-92
2020/12/16 08:30:01;;;;;;;;;;;;;;;14.57;55.19;101681.66;5059501;22;97137;-90
2020/12/16 08:32:30;;;;;;;;;;;;;;;14.60;55.62;101689.53;5048518;28;96717;-92
2020/12/16 08:35:03;;;;;;;;;;;;;;;14.59;55.48;101701.09;5055319;27;96839;-91
2020/12/16 08:37:40;;;;;;;;;;;;;;;14.61;55.78;101703.72;5053841;27;96802;-92
2020/12/16 08:43:21;;;;;;;;;;;;;;;14.76;54.96;101700.47;5050375;27;96685;-92
2020/12/16 08:45:47;;;;;;;;;;;;;;;14.70;54.72;101706.88;5048823;27;96817;-92
2020/12/16 08:48:17;;;;;;;;;;;;;;;14.90;54.11;101703.47;5050760;27;99557;-89
2020/12/16 08:50:43;;;;;;;;;;;;;;;14.92;55.06;101703.41;5049428;27;99253;-92
2020/12/16 08:53:12;;;;;;;;;;;;;;;14.99;54.09;101695.13;5042712;27;96897;-87
2020/12/16 08:55:42;;;;;;;;;;;;;;;14.90;54.70;101702.63;5049475;27;96837;-91
2020/12/16 08:58:08;;;;;;;;;;;;;;;14.91;53.91;101699.00;5046638;27;100393;-91
2020/12/16 09:00:36;;;;;;;;;;;;;;;14.99;53.88;101705.78;5044926;27;99813;-89
2020/12/16 09:03:06;;;;;;;;;;;;;;;15.16;53.66;101705.16;5043252;27;96891;-88
2020/12/16 09:05:33;;;;;;;;;;;;;;;14.95;52.78;101716.63;5043754;28;97796;-89
2020/12/16 09:08:09;;;;;;;;;;;;;;;15.07;52.32;101708.16;5046445;27;96793;-89
2020/12/16 09:10:39;;;;;;;;;;;;;;;15.00;52.66;101714.63;5160345;22;100588;-88
2020/12/16 09:13:10;;;;;;;;;;;;;;;14.94;52.69;101707.75;5037803;27;96048;-90
2020/12/16 09:15:38;;;;;;;;;;;;;;;15.12;51.92;101701.72;5013998;28;96445;-91
2020/12/16 09:18:12;;;;;;;;;;;;;;;15.04;52.31;101710.91;5019914;28;97437;-91
2020/12/16 09:20:41;;;;;;;;;;;;;;;14.66;53.34;101710.59;5022132;28;97066;-89
2020/12/16 09:26:15;;;;;;;;;;;;;;;15.04;52.51;101700.28;5013462;28;96843;-89
2020/12/16 09:28:43;;;;;;;;;;;;;;;15.27;51.88;101707.38;5032768;28;97109;-88
2020/12/16 09:31:18;;;;;;;;;;;;;;;15.35;51.72;101711.47;5021651;28;99357;-90
2020/12/16 09:33:55;;;;;;;;;;;;;;;15.43;51.36;101714.66;5035944;28;96795;-88
2020/12/16 09:36:37;;;;;;;;;;;;;;;15.40;51.49;101714.81;5023456;28;96003;-85
2020/12/16 09:39:05;;;;;;;;;;;;;;;15.17;51.80;101725.50;5029672;27;96569;-88
2020/12/16 09:41:41;;;;;;;;;;;;;;;15.37;51.36;101728.25;5036579;27;98855;-89
2020/12/16 09:44:23;;;;;;;;;;;;;;;15.23;52.04;101722.59;5035916;27;95819;-87
2020/12/16 09:46:52;;;;;;;;;;;;;;;14.91;53.11;101730.94;5035050;28;96356;-88
2020/12/16 09:49:21;;;;;;;;;;;;;;;15.16;52.67;101739.75;5034767;28;96606;-89
2020/12/16 09:51:48;;;;;;;;;;;;;;;15.35;51.95;101729.25;5029539;27;96511;-89
2020/12/16 09:54:39;;;;;;;;;;;;;;;15.48;51.47;101736.69;5018565;28;96386;-89
2020/12/16 09:57:22;;;;;;;;;;;;;;;15.49;51.57;101738.41;5032933;28;96517;-89
2020/12/16 09:59:49;;;;;;;;;;;;;;;15.37;51.69;101735.34;5028982;28;97044;-86
2020/12/16 10:02:18;;;;;;;;;;;;;;;15.18;52.34;101737.88;5012944;28;97703;-87
2020/12/16 10:04:45;;;;;;;;;;;;;;;15.31;51.73;101739.13;5030765;27;96486;-89
2020/12/16 10:07:14;;;;;;;;;;;;;;;15.12;52.43;101738.13;5029476;28;96818;-91
2020/12/16 10:12:25;;;;;;;;;;;;;;;15.37;51.57;101743.34;5015134;28;96428;-89
2020/12/16 10:14:55;;;;;;;;;;;;;;;15.30;51.46;101744.50;5023179;28;96532;-89
2020/12/16 10:17:26;;;;;;;;;;;;;;;15.44;51.06;101740.38;5019142;28;96621;-91
2020/12/16 10:20:02;;;;;;;;;;;;;;;15.23;51.91;101743.03;5017676;28;96768;-87
2020/12/16 10:22:38;;;;;;;;;;;;;;;15.38;51.70;101740.63;5031022;28;100009;-90
2020/12/16 10:25:15;;;;;;;;;;;;;;;15.27;51.79;101742.84;5018360;28;96927;-90
2020/12/16 10:27:42;;;;;;;;;;;;;;;15.32;51.76;101740.88;5023085;28;96680;-87
2020/12/16 10:30:26;;;;;;;;;;;;;;;15.22;51.90;101747.50;5025296;28;98651;-89
2020/12/16 10:32:58;;;;;;;;;;;;;;;15.38;51.26;101747.75;5027827;28;96654;-84
2020/12/16 10:35:26;;;;;;;;;;;;;;;15.37;50.79;101741.56;5030961;28;96402;-90
2020/12/16 10:37:53;;;;;;;;;;;;;;;15.67;50.45;101751.97;5041107;27;96562;-90
2020/12/16 10:40:23;;;;;;;;;;;;;;;15.33;51.17;101744.41;5034422;27;98303;-89
2020/12/16 10:42:54;;;;;;;;;;;;;;;15.48;51.02;101754.47;5037783;27;96486;-86
2020/12/16 10:45:40;;;;;;;;;;;;;;;15.27;51.16;101755.31;5026055;28;96475;-87
2020/12/16 10:51:12;;;;;;;;;;;;;;;15.37;50.59;101757.53;5037400;28;96546;-88
2020/12/16 10:56:22;;;;;;;;;;;;;;;15.76;49.49;101746.22;5028312;27;95955;-88
2020/12/16 10:58:59;;;;;;;;;;;;;;;15.62;50.11;101752.13;5038836;27;96175;-89
2020/12/16 11:01:25;;;;;;;;;;;;;;;15.57;49.91;101743.44;5037793;27;96968;-90
2020/12/16 11:03:54;;;;;;;;;;;;;;;15.35;50.09;101742.56;5029784;28;96769;-90
2020/12/16 11:06:22;;;;;;;;;;;;;;;15.25;50.00;101742.03;5106797;22;100010;-83
2020/12/16 11:08:50;;;;;;;;;;;;;;;15.45;49.81;101742.13;5043534;27;96824;-87
2020/12/16 11:14:01;;;;;;;;;;;;;;;15.52;50.23;101743.66;5145787;22;98971;-89
2020/12/16 11:20:04;;;;;;;;;;;;;;;15.37;50.02;101738.03;5086440;27;96701;-89
2020/12/16 11:22:52;;;;;;;;;;;;;;;15.47;49.95;101745.59;5035255;27;96021;-88
2020/12/16 11:25:26;;;;;;;;;;;;;;;15.18;51.01;101742.34;5027301;28;96949;-89
2020/12/16 11:30:56;;;;;;;;;;;;;;;15.23;51.26;101751.03;5034393;28;95972;-91
2020/12/16 11:33:38;;;;;;;;;;;;;;;15.20;51.51;101754.66;5015182;28;96033;-87
2020/12/16 11:36:13;;;;;;;;;;;;;;;14.99;51.96;101748.38;5027698;28;96609;-87
2020/12/16 11:38:40;;;;;;;;;;;;;;;15.00;51.79;101751.91;5026692;28;96879;-89
2020/12/16 11:41:14;;;;;;;;;;;;;;;15.21;51.62;101751.09;5024717;28;96470;-90
2020/12/16 11:43:42;;;;;;;;;;;;;;;15.35;51.38;101740.78;5021866;28;96692;-88
2020/12/16 11:46:39;;;;;;;;;;;;;;;15.30;51.57;101737.41;5024985;28;97062;-90
2020/12/16 11:49:40;;;;;;;;;;;;;;;15.51;50.93;101743.66;5020914;28;96859;-87
2020/12/16 11:52:07;;;;;;;;;;;;;;;15.29;51.35;101741.00;5022997;28;96834;-83
2020/12/16 11:54:43;;;;;;;;;;;;;;;15.50;51.05;101742.81;5026738;28;96911;-85
2020/12/16 11:57:15;;;;;;;;;;;;;;;15.54;50.57;101747.13;5026776;28;97090;-83
2020/12/16 11:59:44;;;;;;;;;;;;;;;15.28;50.99;101749.06;5028859;28;98798;-89
2020/12/16 12:02:10;;;;;;;;;;;;;;;15.34;50.65;101752.34;5038674;27;95919;-90
2020/12/16 12:04:40;;;;;;;;;;;;;;;15.58;50.18;101749.66;5039373;28;96576;-89
2020/12/16 12:09:47;;;;;;;;;;;;;;;15.75;50.44;101752.50;5028568;28;99817;-90
2020/12/16 12:14:56;;;;;;;;;;;;;;;15.78;50.31;101752.38;5025025;28;97158;-91
2020/12/16 12:17:26;;;;;;;;;;;;;;;15.59;50.60;101759.38;5024894;28;96988;-89
2020/12/16 12:19:58;;;;;;;;;;;;;;;15.62;50.26;101753.94;5030058;28;98877;-90
2020/12/16 12:22:29;;;;;;;;;;;;;;;15.71;50.43;101745.56;5034923;28;96677;-88
2020/12/16 12:24:56;;;;;;;;;;;;;;;15.66;50.27;101739.56;5034684;28;96694;-91
2020/12/16 12:27:37;;;;;;;;;;;;;;;15.64;50.39;101744.06;5033434;28;100290;-91
2020/12/16 12:32:45;;;;;;;;;;;;;;;15.62;50.80;101743.28;5012265;28;95928;-88
2020/12/16 12:37:37;;;;;;;;;;;;;;;15.27;52.34;101742.84;5072756;22;125394;-91
2020/12/16 12:40:06;;;;;;;;;;;;;;;15.42;52.16;101744.06;5011489;28;96638;-89
2020/12/16 12:42:37;;;;;;;;;;;;;;;15.37;52.57;101744.22;4986028;28;96597;-89
2020/12/16 12:45:05;;;;;;;;;;;;;;;15.41;52.34;101753.84;5000826;28;97568;-89
2020/12/16 12:47:33;;;;;;;;;;;;;;;15.64;51.87;101754.72;4999911;28;96929;-91
2020/12/16 12:50:00;;;;;;;;;;;;;;;15.50;52.12;101745.47;5006983;28;96909;-90
2020/12/16 12:52:26;;;;;;;;;;;;;;;15.55;51.95;101750.66;4994428;28;96738;-91
2020/12/16 12:55:05;;;;;;;;;;;;;;;15.36;52.66;101747.81;4997726;28;96889;-92
2020/12/16 12:57:31;;;;;;;;;;;;;;;15.45;52.44;101742.13;4988029;28;96525;-92
2020/12/16 12:59:58;;;;;;;;;;;;;;;15.32;52.56;101738.22;4991657;28;96792;-91
2020/12/16 13:02:32;;;;;;;;;;;;;;;15.33;52.92;101739.09;4977023;28;96545;-90
2020/12/16 13:05:19;;;;;;;;;;;;;;;15.25;53.14;101738.50;4986379;28;96702;-84
2020/12/16 13:07:46;;;;;;;;;;;;;;;15.32;53.00;101740.00;4997743;28;98188;-88
2020/12/16 13:10:16;;;;;;;;;;;;;;;15.42;53.03;101741.41;5004403;28;98034;-88
2020/12/16 13:13:00;;;;;;;;;;;;;;;15.30;52.90;101737.41;5019332;28;96523;-88
2020/12/16 13:15:36;;;;;;;;;;;;;;;15.05;53.66;101739.28;4981948;28;96718;-89
2020/12/16 13:18:06;;;;;;;;;;;;;;;15.34;52.91;101741.69;5001927;28;96848;-87
2020/12/16 13:20:32;;;;;;;;;;;;;;;15.51;52.31;101747.19;5002059;28;98122;-88
2020/12/16 13:23:12;;;;;;;;;;;;;;;15.34;52.82;101749.69;4996931;28;96723;-89